Time;durP1;ratioP1;P1;durP2;ratioP2;P2;SDS_P1;SDS_P2;PMS_P1;PMS_P2;Temp;Humidity;BMP_temperature;BMP_pressure;BME280_temperature;BME280_humidity;BME280_pressure;Samples;Min_cycle;Max_cycle;Signal;HPM_P1;HPM_P2
2023/01/04 00:04:50;;;;;;;9.07;3.87;;;7.20;99.90;;;;;;10469134;28;20573;-76
2023/01/04 00:09:50;;;;;;;6.53;3.00;;;7.20;99.90;;;;;;10476626;28;20682;-76
2023/01/04 00:14:51;;;;;;;6.90;3.83;;;7.20;99.90;;;;;;10471137;28;20217;-70
2023/01/04 00:19:51;;;;;;;5.23;3.13;;;7.20;99.90;;;;;;10473746;28;20238;-70
2023/01/04 00:24:52;;;;;;;4.57;3.40;;;7.20;99.90;;;;;;10470422;28;20231;-73
2023/01/04 00:29:52;;;;;;;6.47;3.60;;;7.20;99.90;;;;;;10474424;28;20215;-73
2023/01/04 00:34:53;;;;;;;8.17;3.77;;;7.30;99.90;;;;;;10469621;28;20584;-72
2023/01/04 00:39:53;;;;;;;6.47;4.10;;;7.30;99.90;;;;;;10465441;28;20282;-71
2023/01/04 00:44:54;;;;;;;7.07;4.70;;;7.40;99.90;;;;;;10483969;28;20216;-73
2023/01/04 00:49:55;;;;;;;6.23;4.60;;;7.40;99.90;;;;;;10455829;28;20231;-75
2023/01/04 00:54:55;;;;;;;9.67;5.47;;;7.50;99.90;;;;;;10476048;28;20274;-73
2023/01/04 00:59:56;;;;;;;8.47;5.73;;;7.50;99.90;;;;;;10474602;28;20721;-71
2023/01/04 01:04:56;;;;;;;8.13;6.67;;;7.50;99.90;;;;;;10474336;28;20699;-72
2023/01/04 01:09:57;;;;;;;11.20;7.27;;;7.40;99.90;;;;;;10478460;28;20241;-78
2023/01/04 01:14:57;;;;;;;11.00;8.13;;;7.40;99.90;;;;;;10468833;28;20226;-73
2023/01/04 01:19:58;;;;;;;12.10;8.67;;;7.30;99.90;;;;;;10466548;28;20219;-75
2023/01/04 01:24:59;;;;;;;11.50;7.43;;;7.30;99.90;;;;;;10474535;28;20226;-75
2023/01/04 01:29:59;;;;;;;12.23;8.40;;;7.40;99.90;;;;;;10448747;28;20350;-75
2023/01/04 01:35:00;;;;;;;9.30;7.37;;;7.30;99.90;;;;;;10457839;28;20318;-72
2023/01/04 01:40:00;;;;;;;11.13;7.93;;;7.30;99.90;;;;;;10462878;28;20776;-72
2023/01/04 01:45:10;;;;;;;10.03;8.30;;;7.30;99.90;;;;;;10458780;28;20216;-73
2023/01/04 01:50:35;;;;;;;12.27;8.87;;;7.10;99.90;;;;;;10466604;28;20224;-72
2023/01/04 01:55:38;;;;;;;11.60;9.67;;;7.10;99.90;;;;;;10457516;28;20230;-72
2023/01/04 02:00:39;;;;;;;14.50;9.43;;;7.10;99.90;;;;;;10474577;28;20314;-70
2023/01/04 02:05:40;;;;;;;12.87;9.33;;;7.10;99.90;;;;;;10450826;28;20306;-69
2023/01/04 02:10:41;;;;;;;13.47;10.00;;;7.20;99.90;;;;;;10469705;28;20274;-69
2023/01/04 02:16:33;;;;;;;11.67;9.30;;;7.30;99.90;;;;;;10450198;28;20215;-70
2023/01/04 02:22:19;;;;;;;13.80;9.97;;;7.30;99.90;;;;;;10462450;28;20314;-68
2023/01/04 02:27:50;;;;;;;15.17;9.40;;;7.30;99.90;;;;;;10427489;28;20243;-70
2023/01/04 02:33:11;;;;;;;12.80;9.53;;;7.20;99.90;;;;;;10469037;28;20287;-69
2023/01/04 02:38:30;;;;;;;13.13;9.90;;;7.10;99.90;;;;;;10465316;28;20633;-68
2023/01/04 02:54:29;;;;;;;12.67;8.93;;;7.10;99.90;;;;;;10473672;28;20461;-67
2023/01/04 02:59:33;;;;;;;10.87;8.37;;;7.10;99.90;;;;;;10476085;28;20355;-69
2023/01/04 03:10:06;;;;;;;11.70;7.50;;;7.10;99.90;;;;;;10472249;28;20221;-70
2023/01/04 03:15:32;;;;;;;9.47;7.60;;;7.20;99.90;;;;;;10477485;28;20227;-70
2023/01/04 03:20:32;;;;;;;8.73;7.50;;;7.20;99.90;;;;;;10473989;28;20734;-69
2023/01/04 03:37:04;;;;;;;9.73;6.33;;;7.20;99.90;;;;;;10475345;28;20217;-70
2023/01/04 03:53:17;;;;;;;9.93;6.73;;;7.30;99.90;;;;;;10470106;28;20231;-68
2023/01/04 03:58:19;;;;;;;9.77;6.53;;;7.30;99.90;;;;;;10457074;28;20314;-69
2023/01/04 04:03:19;;;;;;;8.10;6.00;;;7.30;99.90;;;;;;10452111;28;20234;-67
2023/01/04 04:08:29;;;;;;;9.37;6.87;;;7.30;99.90;;;;;;10483316;28;20306;-68
2023/01/04 04:13:30;;;;;;;8.07;5.67;;;7.30;99.90;;;;;;10475826;28;20222;-68
2023/01/04 04:18:30;;;;;;;8.10;5.87;;;7.30;99.90;;;;;;10471046;28;20222;-67
2023/01/04 04:23:31;;;;;;;8.17;6.10;;;7.30;99.90;;;;;;10457154;28;20233;-68
2023/01/04 04:28:32;;;;;;;8.20;7.07;;;7.30;99.90;;;;;;10475796;28;20221;-67
2023/01/04 04:33:33;;;;;;;13.97;6.73;;;7.30;99.90;;;;;;10474835;28;20247;-70
2023/01/04 04:38:34;;;;;;;8.00;6.43;;;7.10;99.90;;;;;;10456914;28;20226;-67
2023/01/04 04:43:35;;;;;;;10.60;7.07;;;7.00;99.90;;;;;;10477973;28;20258;-70
2023/01/04 04:48:35;;;;;;;10.40;7.00;;;6.90;99.90;;;;;;10477283;28;20240;-71
2023/01/04 04:53:36;;;;;;;9.63;6.53;;;6.80;99.90;;;;;;10463467;28;20218;-68
2023/01/04 04:58:37;;;;;;;8.37;6.27;;;6.80;99.90;;;;;;10481884;28;20215;-70
2023/01/04 05:03:38;;;;;;;9.87;6.73;;;6.70;99.90;;;;;;10465619;28;20237;-70
2023/01/04 05:08:38;;;;;;;11.57;7.10;;;6.70;99.90;;;;;;10476867;28;20595;-70
2023/01/04 05:13:39;;;;;;;10.20;7.03;;;6.70;99.90;;;;;;10474139;28;20719;-69
2023/01/04 05:18:39;;;;;;;11.23;7.13;;;6.70;99.90;;;;;;10451013;28;20310;-67
2023/01/04 05:23:40;;;;;;;9.50;6.67;;;6.60;99.90;;;;;;10470615;28;20222;-67
2023/01/04 05:28:40;;;;;;;11.10;7.73;;;6.60;99.90;;;;;;10483282;28;20587;-66
2023/01/04 05:33:41;;;;;;;9.40;8.07;;;6.60;99.90;;;;;;10455623;28;20225;-67
2023/01/04 05:38:41;;;;;;;9.37;8.10;;;6.60;99.90;;;;;;10468166;28;20223;-67
2023/01/04 05:43:42;;;;;;;12.90;9.73;;;6.60;99.90;;;;;;10451861;28;20231;-72
2023/01/04 05:48:42;;;;;;;17.53;11.37;;;6.50;99.90;;;;;;10472794;28;20253;-72
2023/01/04 05:53:43;;;;;;;14.30;10.33;;;6.50;99.90;;;;;;10483683;28;20646;-72
2023/01/04 05:58:43;;;;;;;14.40;11.50;;;6.40;99.90;;;;;;10451329;28;20224;-71
2023/01/04 06:03:44;;;;;;;18.30;12.03;;;6.40;99.90;;;;;;10479021;28;20254;-71
2023/01/04 06:08:46;;;;;;;18.40;12.53;;;6.40;99.90;;;;;;10479780;28;20219;-72
2023/01/04 06:13:46;;;;;;;18.70;12.73;;;6.40;99.90;;;;;;10474838;28;20222;-67
2023/01/04 06:18:47;;;;;;;15.00;11.70;;;6.40;99.90;;;;;;10455385;28;20218;-69
2023/01/04 06:23:47;;;;;;;16.80;12.17;;;6.60;99.90;;;;;;10475908;28;20235;-69
2023/01/04 06:28:48;;;;;;;14.40;10.30;;;6.60;99.90;;;;;;10469807;28;20660;-68
2023/01/04 06:33:48;;;;;;;14.87;11.10;;;6.70;99.90;;;;;;10474729;28;20229;-68
2023/01/04 06:38:49;;;;;;;15.83;9.90;;;6.80;99.90;;;;;;10472321;28;20223;-69
2023/01/04 06:43:49;;;;;;;13.20;10.70;;;6.90;99.90;;;;;;10462223;28;20211;-70
2023/01/04 06:48:52;;;;;;;14.37;10.43;;;6.90;99.90;;;;;;10499199;28;20349;-69
2023/01/04 06:53:53;;;;;;;15.63;11.60;;;6.90;99.90;;;;;;10472783;28;20332;-69
2023/01/04 06:58:53;;;;;;;16.97;11.67;;;7.00;99.90;;;;;;10481998;28;20218;-69
2023/01/04 07:03:54;;;;;;;17.73;12.63;;;6.90;99.90;;;;;;10453890;28;20247;-69
2023/01/04 07:08:55;;;;;;;17.33;11.90;;;6.90;99.90;;;;;;10476943;28;20320;-67
2023/01/04 07:13:56;;;;;;;19.53;12.73;;;6.80;99.90;;;;;;10478064;28;20231;-68
2023/01/04 07:18:57;;;;;;;17.00;12.53;;;6.80;99.90;;;;;;10469663;28;20219;-68
2023/01/04 07:23:57;;;;;;;15.27;11.27;;;6.80;99.90;;;;;;10476574;28;20318;-68
2023/01/04 07:29:16;;;;;;;14.80;10.93;;;6.80;99.90;;;;;;10469581;28;20230;-69
2023/01/04 07:34:19;;;;;;;18.33;10.90;;;6.90;99.90;;;;;;10456277;28;20224;-69
2023/01/04 07:39:20;;;;;;;13.97;10.40;;;6.90;99.90;;;;;;10461447;28;20231;-68
2023/01/04 07:44:21;;;;;;;14.37;10.40;;;7.00;99.90;;;;;;10474417;28;20292;-69
2023/01/04 07:49:21;;;;;;;14.30;10.37;;;7.00;99.90;;;;;;10479139;28;20280;-69
2023/01/04 07:54:25;;;;;;;13.70;8.87;;;7.00;99.90;;;;;;10470532;28;20231;-69
2023/01/04 07:59:25;;;;;;;12.13;8.67;;;7.10;99.90;;;;;;10455673;28;20304;-69
2023/01/04 08:04:26;;;;;;;10.03;7.77;;;7.20;99.90;;;;;;10453336;28;20311;-69
2023/01/04 08:09:26;;;;;;;9.33;7.53;;;7.20;99.90;;;;;;10461725;28;20221;-69
2023/01/04 08:14:27;;;;;;;9.90;7.20;;;7.30;99.90;;;;;;10481098;28;20231;-69
2023/01/04 08:19:27;;;;;;;9.70;7.87;;;7.30;99.90;;;;;;10453814;28;20216;-69
2023/01/04 08:24:28;;;;;;;8.60;6.87;;;7.40;99.90;;;;;;10468983;28;20230;-71
2023/01/04 08:29:29;;;;;;;8.77;6.40;;;7.50;99.90;;;;;;10471838;28;20225;-70
2023/01/04 08:34:30;;;;;;;10.87;6.60;;;7.50;99.90;;;;;;10470195;28;20230;-69
2023/01/04 08:39:34;;;;;;;6.90;5.90;;;7.60;99.90;;;;;;10476826;28;20222;-69
2023/01/04 08:44:35;;;;;;;8.93;5.43;;;7.60;99.90;;;;;;10465141;28;20221;-69
2023/01/04 08:49:38;;;;;;;7.07;4.83;;;7.60;99.90;;;;;;10452065;28;20304;-68
2023/01/04 08:54:39;;;;;;;8.03;4.57;;;7.70;99.90;;;;;;10480647;28;20228;-69
2023/01/04 08:59:40;;;;;;;5.97;4.90;;;7.70;99.90;;;;;;10469087;28;20227;-68
2023/01/04 09:04:40;;;;;;;5.87;4.27;;;7.80;99.90;;;;;;10470317;28;20238;-70
2023/01/04 09:09:51;;;;;;;7.07;4.60;;;7.80;99.90;;;;;;10451041;28;20278;-68
2023/01/04 09:14:52;;;;;;;8.93;4.47;;;7.80;99.90;;;;;;10471669;28;20223;-68
2023/01/04 09:19:52;;;;;;;5.60;4.03;;;7.90;99.90;;;;;;10466913;28;20314;-71
2023/01/04 09:24:54;;;;;;;6.50;4.33;;;7.90;99.90;;;;;;10472081;28;20239;-68
2023/01/04 09:29:54;;;;;;;5.13;3.70;;;7.90;99.90;;;;;;10467346;28;20243;-69
2023/01/04 09:34:55;;;;;;;5.87;3.93;;;7.90;99.90;;;;;;10475676;28;20264;-69
2023/01/04 09:39:55;;;;;;;5.43;3.53;;;7.90;99.90;;;;;;10464586;28;20222;-69
2023/01/04 09:45:00;;;;;;;3.90;3.27;;;8.00;99.90;;;;;;10471708;28;20716;-69
2023/01/04 09:50:22;;;;;;;4.17;3.00;;;8.10;99.90;;;;;;10465028;28;20222;-68
2023/01/04 09:55:26;;;;;;;5.00;3.07;;;8.10;99.90;;;;;;10459501;28;20296;-69
2023/01/04 10:00:36;;;;;;;4.83;2.70;;;8.20;99.90;;;;;;10446259;28;20303;-68
2023/01/04 10:05:36;;;;;;;4.27;2.90;;;8.20;99.90;;;;;;10479281;28;20328;-68
2023/01/04 10:11:01;;;;;;;3.83;2.53;;;8.20;99.90;;;;;;10472034;28;20309;-69
2023/01/04 10:16:35;;;;;;;4.47;2.00;;;8.30;99.90;;;;;;10471521;28;20228;-68
2023/01/04 10:21:54;;;;;;;3.83;2.17;;;8.30;99.90;;;;;;10466202;28;20238;-68
2023/01/04 10:27:04;;;;;;;5.33;2.20;;;8.40;99.90;;;;;;10472201;28;20225;-69
2023/01/04 10:32:14;;;;;;;2.67;2.30;;;8.50;99.90;;;;;;10463585;28;20272;-69
2023/01/04 10:37:22;;;;;;;2.47;1.80;;;8.50;99.90;;;;;;10472772;28;20217;-68
2023/01/04 10:42:33;;;;;;;2.90;2.10;;;8.60;99.90;;;;;;10471481;28;20860;-68
2023/01/04 10:47:45;;;;;;;3.20;1.90;;;8.60;99.90;;;;;;10492319;28;20213;-68
2023/01/04 10:53:23;;;;;;;2.27;1.80;;;8.70;99.90;;;;;;10466487;28;20231;-69
2023/01/04 10:59:01;;;;;;;3.23;2.43;;;8.70;99.90;;;;;;10456588;28;20242;-69
2023/01/04 11:04:10;;;;;;;5.10;2.40;;;8.70;99.90;;;;;;10466247;28;20273;-69
2023/01/04 11:09:18;;;;;;;5.40;1.90;;;8.70;99.90;;;;;;10453841;28;20227;-68
2023/01/04 11:14:18;;;;;;;3.17;2.10;;;8.80;99.90;;;;;;10460868;28;20762;-68
2023/01/04 11:19:19;;;;;;;2.53;1.90;;;8.80;99.90;;;;;;10469803;28;20225;-69
2023/01/04 11:24:20;;;;;;;3.03;1.93;;;8.80;99.90;;;;;;10476095;28;20234;-69
2023/01/04 11:29:53;;;;;;;4.70;2.00;;;8.80;99.90;;;;;;10475781;28;20309;-70
2023/01/04 11:34:56;;;;;;;4.37;1.83;;;8.80;99.90;;;;;;10461270;28;20225;-69
2023/01/04 11:40:15;;;;;;;2.13;1.70;;;8.80;99.90;;;;;;10470336;28;20222;-69
2023/01/04 11:45:33;;;;;;;3.70;1.90;;;8.80;99.90;;;;;;10470147;28;20277;-68
2023/01/04 11:50:45;;;;;;;2.43;1.73;;;8.90;99.90;;;;;;10465931;28;20213;-68
2023/01/04 11:55:46;;;;;;;2.70;1.90;;;8.90;99.90;;;;;;10450458;28;20220;-68
2023/01/04 12:00:55;;;;;;;1.90;1.70;;;9.00;99.90;;;;;;10473725;28;20219;-68
2023/01/04 12:05:57;;;;;;;3.50;1.73;;;9.00;99.90;;;;;;10469829;28;20226;-69
2023/01/04 12:10:59;;;;;;;1.73;1.60;;;9.10;99.90;;;;;;10475032;28;20218;-67
2023/01/04 12:16:06;;;;;;;1.77;1.50;;;9.20;99.90;;;;;;10479662;28;20711;-68
2023/01/04 12:21:25;;;;;;;1.97;1.70;;;9.20;99.90;;;;;;10467985;28;20325;-69
2023/01/04 12:26:25;;;;;;;4.87;1.60;;;9.20;99.90;;;;;;10473448;28;20249;-69
2023/01/04 12:31:27;;;;;;;3.50;1.70;;;9.20;99.90;;;;;;10478266;28;20226;-69
2023/01/04 12:36:37;;;;;;;2.20;1.70;;;9.20;99.90;;;;;;10454328;28;20258;-69
2023/01/04 12:41:40;;;;;;;2.07;1.87;;;9.20;99.90;;;;;;10477983;28;20717;-69
2023/01/04 12:52:06;;;;;;;2.73;1.80;;;9.20;99.90;;;;;;10467255;28;20226;-70
2023/01/04 12:57:16;;;;;;;3.20;1.93;;;9.20;99.90;;;;;;10474202;28;20288;-69
2023/01/04 13:02:19;;;;;;;4.10;1.60;;;9.20;99.90;;;;;;10466116;28;20222;-69
2023/01/04 13:07:41;;;;;;;2.30;1.53;;;9.30;99.90;;;;;;10472239;28;20215;-69
2023/01/04 13:13:20;;;;;;;2.73;1.50;;;9.40;99.90;;;;;;10452166;28;20225;-69
2023/01/04 13:18:31;;;;;;;2.97;1.50;;;9.60;99.90;;;;;;10467225;28;20212;-69
2023/01/04 13:23:31;;;;;;;2.50;1.70;;;9.70;99.90;;;;;;10451966;28;20649;-68
2023/01/04 13:28:32;;;;;;;4.40;1.70;;;9.70;99.90;;;;;;10467906;28;20270;-69
2023/01/04 13:33:33;;;;;;;2.43;1.80;;;9.70;99.90;;;;;;10468884;28;20212;-68
2023/01/04 13:38:35;;;;;;;2.40;1.60;;;9.80;99.90;;;;;;10459128;28;20229;-69
2023/01/04 13:43:35;;;;;;;1.73;1.37;;;9.80;99.90;;;;;;10462922;28;20239;-69
2023/01/04 13:48:42;;;;;;;3.93;2.10;;;9.90;99.90;;;;;;10468656;28;20281;-68
2023/01/04 13:53:54;;;;;;;2.17;1.50;;;9.90;99.90;;;;;;10469417;28;20231;-68
2023/01/04 13:58:55;;;;;;;1.53;1.37;;;9.90;99.90;;;;;;10473934;28;20713;-68
2023/01/04 14:03:58;;;;;;;3.13;1.50;;;9.90;99.90;;;;;;10452643;28;20234;-67
2023/01/04 14:09:04;;;;;;;2.10;1.50;;;9.90;99.90;;;;;;10474463;28;20298;-69
2023/01/04 14:14:29;;;;;;;2.53;1.73;;;10.00;99.90;;;;;;10472365;28;20231;-69
2023/01/04 14:19:46;;;;;;;2.17;1.33;;;10.10;99.90;;;;;;10439574;28;20254;-70
2023/01/04 14:24:48;;;;;;;1.50;1.40;;;10.10;99.90;;;;;;10466348;28;20614;-68
2023/01/04 14:29:49;;;;;;;1.83;1.23;;;10.10;99.90;;;;;;10469198;28;20224;-68
2023/01/04 14:34:50;;;;;;;1.90;1.60;;;10.10;99.90;;;;;;10471218;28;20212;-69
2023/01/04 14:39:50;;;;;;;2.57;1.57;;;10.10;99.90;;;;;;10478707;28;20270;-68
2023/01/04 14:44:51;;;;;;;3.17;1.60;;;10.00;99.90;;;;;;10476595;28;20692;-68
2023/01/04 14:49:51;;;;;;;1.80;1.50;;;10.00;99.90;;;;;;10470673;28;20593;-69
2023/01/04 14:54:52;;;;;;;2.47;1.70;;;9.90;99.90;;;;;;10502023;28;20333;-71
2023/01/04 14:59:52;;;;;;;2.97;1.60;;;9.90;99.90;;;;;;10472080;28;20307;-69
2023/01/04 15:04:53;;;;;;;4.33;2.13;;;9.90;99.90;;;;;;10469376;28;20246;-69
2023/01/04 15:09:53;;;;;;;3.43;1.77;;;9.90;99.90;;;;;;10477196;28;20222;-70
2023/01/04 15:14:54;;;;;;;3.67;1.80;;;9.90;99.90;;;;;;10472207;28;20223;-69
2023/01/04 15:19:54;;;;;;;2.07;1.20;;;9.80;99.90;;;;;;10458954;28;20226;-68
2023/01/04 15:24:55;;;;;;;1.93;1.73;;;9.90;99.90;;;;;;10471946;28;20224;-69
2023/01/04 15:29:56;;;;;;;3.33;1.77;;;9.90;99.90;;;;;;10476746;28;20289;-68
2023/01/04 15:34:56;;;;;;;5.07;1.80;;;9.90;99.90;;;;;;10479094;28;20326;-69
2023/01/04 15:39:57;;;;;;;1.97;1.63;;;9.90;99.90;;;;;;10474847;28;20289;-69
2023/01/04 15:44:57;;;;;;;1.50;1.30;;;9.90;99.90;;;;;;10452280;28;20239;-68
2023/01/04 15:49:58;;;;;;;1.57;0.80;;;10.00;99.90;;;;;;10475053;28;20734;-68
2023/01/04 15:54:58;;;;;;;1.77;1.10;;;10.10;99.90;;;;;;10450669;28;20318;-69
2023/01/04 15:59:59;;;;;;;2.27;1.30;;;10.20;99.90;;;;;;10495366;28;20214;-68
2023/01/04 16:05:00;;;;;;;1.20;1.10;;;10.20;99.90;;;;;;10494096;28;20769;-67
2023/01/04 16:10:00;;;;;;;1.53;1.20;;;10.20;99.90;;;;;;10468988;28;20250;-67
2023/01/04 16:15:01;;;;;;;2.67;1.60;;;10.20;99.90;;;;;;10457325;28;20261;-68
2023/01/04 16:20:02;;;;;;;2.63;1.07;;;10.20;99.90;;;;;;10475646;28;20326;-68
2023/01/04 16:25:03;;;;;;;1.50;1.00;;;10.20;99.90;;;;;;10468127;28;20219;-68
2023/01/04 16:30:09;;;;;;;4.40;1.00;;;10.20;99.90;;;;;;10467393;28;20227;-67
2023/01/04 16:35:10;;;;;;;1.43;0.90;;;10.30;99.90;;;;;;10475019;28;20227;-71
2023/01/04 16:40:11;;;;;;;2.30;1.13;;;10.30;99.90;;;;;;10467806;28;20192;-68
2023/01/04 16:45:12;;;;;;;3.53;1.20;;;10.40;99.90;;;;;;10456669;28;20204;-69
2023/01/04 16:50:12;;;;;;;1.67;0.70;;;10.30;99.90;;;;;;10475151;28;20279;-67
2023/01/04 16:55:16;;;;;;;1.47;0.70;;;10.40;99.90;;;;;;10458818;28;20230;-69
2023/01/04 17:00:18;;;;;;;1.13;0.70;;;10.40;99.90;;;;;;10472172;28;20187;-69
2023/01/04 17:05:18;;;;;;;1.77;0.63;;;10.40;99.90;;;;;;10468163;28;20196;-68
2023/01/04 17:10:19;;;;;;;1.80;1.30;;;10.40;99.90;;;;;;10472154;28;20274;-69
2023/01/04 17:15:19;;;;;;;0.70;0.70;;;10.50;99.90;;;;;;10467495;28;20191;-68
2023/01/04 17:20:20;;;;;;;0.97;0.60;;;10.50;99.90;;;;;;10471576;28;20194;-68
2023/01/04 17:25:20;;;;;;;0.77;0.70;;;10.40;99.90;;;;;;10474689;28;20566;-68
2023/01/04 17:30:21;;;;;;;0.70;0.60;;;10.40;99.90;;;;;;10471377;28;20197;-69
2023/01/04 17:35:21;;;;;;;0.67;0.67;;;10.40;99.90;;;;;;10465743;28;20215;-68
2023/01/04 17:40:22;;;;;;;1.90;0.60;;;10.40;99.90;;;;;;10486262;28;20198;-69
2023/01/04 17:45:23;;;;;;;2.97;0.87;;;10.40;99.90;;;;;;10473368;28;20226;-66
2023/01/04 17:50:23;;;;;;;1.83;1.17;;;10.40;99.90;;;;;;10488703;28;20599;-66
2023/01/04 17:55:24;;;;;;;1.03;0.63;;;10.40;99.90;;;;;;10487489;28;21731;-66
2023/01/04 18:00:24;;;;;;;3.80;1.10;;;10.40;99.90;;;;;;10467385;28;20223;-71
2023/01/04 18:05:25;;;;;;;1.47;0.97;;;10.50;99.90;;;;;;10481786;28;20230;-67
2023/01/04 18:10:25;;;;;;;0.87;0.70;;;10.50;99.90;;;;;;10465649;28;20299;-73
2023/01/04 18:15:26;;;;;;;1.10;1.00;;;10.40;99.90;;;;;;10480384;28;20314;-72
2023/01/04 18:20:27;;;;;;;0.87;0.87;;;10.40;99.90;;;;;;10497894;28;20222;-71
2023/01/04 18:25:27;;;;;;;1.70;1.00;;;10.50;99.90;;;;;;10496557;28;20314;-71
2023/01/04 18:30:28;;;;;;;1.13;0.70;;;10.50;99.90;;;;;;10497830;28;20210;-72
2023/01/04 18:35:28;;;;;;;0.70;0.70;;;10.50;99.90;;;;;;10496869;28;20662;-71
2023/01/04 18:40:29;;;;;;;1.10;1.00;;;10.50;99.90;;;;;;10496587;28;20999;-72
2023/01/04 18:45:30;;;;;;;1.37;1.00;;;10.50;99.90;;;;;;10479829;28;20225;-73
2023/01/04 18:50:32;;;;;;;1.17;1.07;;;10.50;99.90;;;;;;10493605;28;20223;-71
2023/01/04 18:55:33;;;;;;;1.20;1.10;;;10.50;99.90;;;;;;10479567;28;20258;-72
2023/01/04 19:00:33;;;;;;;1.70;1.20;;;10.50;99.90;;;;;;10496400;28;20678;-73
2023/01/04 19:05:34;;;;;;;1.77;1.17;;;10.50;99.90;;;;;;10496637;28;20211;-73
2023/01/04 19:10:34;;;;;;;1.27;1.10;;;10.40;99.90;;;;;;10496105;28;20583;-73
2023/01/04 19:15:36;;;;;;;1.97;1.77;;;10.30;99.90;;;;;;10476678;28;20220;-73
2023/01/04 19:20:38;;;;;;;2.20;1.50;;;10.30;99.90;;;;;;10475878;28;20554;-73
2023/01/04 19:25:40;;;;;;;1.57;1.07;;;10.30;99.90;;;;;;10470991;28;20218;-73
2023/01/04 19:30:41;;;;;;;1.63;1.53;;;10.20;99.90;;;;;;10471483;28;20238;-73
2023/01/04 19:35:44;;;;;;;2.43;1.50;;;10.20;99.90;;;;;;10464971;28;20317;-72
2023/01/04 19:40:54;;;;;;;1.80;1.40;;;10.30;99.90;;;;;;10465172;28;20219;-74
2023/01/04 19:45:54;;;;;;;2.67;1.37;;;10.20;99.90;;;;;;10478652;28;20686;-72
2023/01/04 19:51:24;;;;;;;1.83;1.40;;;10.20;99.90;;;;;;10472348;28;20216;-71
2023/01/04 19:56:25;;;;;;;1.80;1.70;;;10.10;99.90;;;;;;10477066;28;20714;-71
2023/01/04 20:01:25;;;;;;;2.40;1.70;;;10.00;99.90;;;;;;10451832;28;20232;-71
2023/01/04 20:06:26;;;;;;;2.00;1.40;;;10.00;99.90;;;;;;10475905;28;20223;-71
2023/01/04 20:11:27;;;;;;;2.43;1.77;;;9.90;99.90;;;;;;10472806;28;20226;-72
2023/01/04 20:16:27;;;;;;;3.07;2.10;;;9.80;99.90;;;;;;10463379;28;20215;-71
2023/01/04 20:21:28;;;;;;;4.53;2.10;;;9.80;99.90;;;;;;10455814;28;20629;-72
2023/01/04 20:26:28;;;;;;;2.60;1.80;;;9.80;99.90;;;;;;10476257;28;20220;-71
2023/01/04 20:31:30;;;;;;;2.17;1.97;;;9.80;99.90;;;;;;10471798;28;20219;-71
2023/01/04 20:36:31;;;;;;;3.50;1.87;;;9.70;99.90;;;;;;10480686;28;20250;-70
2023/01/04 20:41:31;;;;;;;1.47;1.37;;;9.70;99.90;;;;;;10479356;28;20632;-70
2023/01/04 20:46:32;;;;;;;3.07;1.30;;;9.80;99.90;;;;;;10467197;28;20220;-70
2023/01/04 20:51:32;;;;;;;2.80;1.30;;;9.80;99.90;;;;;;10468645;28;20240;-70
2023/01/04 20:56:36;;;;;;;1.20;1.10;;;9.80;99.90;;;;;;10476737;28;20207;-70
2023/01/04 21:01:36;;;;;;;1.87;0.80;;;9.90;99.90;;;;;;10455569;28;20216;-73
2023/01/04 21:06:40;;;;;;;2.70;0.77;;;9.90;99.90;;;;;;10475597;28;20570;-72
2023/01/04 21:11:44;;;;;;;1.90;0.90;;;10.00;99.90;;;;;;10489237;28;20298;-71
2023/01/04 21:16:47;;;;;;;1.30;0.70;;;10.00;99.90;;;;;;10490134;28;20249;-74
2023/01/04 21:21:48;;;;;;;0.70;0.50;;;10.00;99.90;;;;;;10486267;28;20228;-72
2023/01/04 21:26:48;;;;;;;3.10;1.00;;;10.00;99.90;;;;;;10465808;28;20586;-70
2023/01/04 21:31:49;;;;;;;1.93;1.47;;;10.10;99.90;;;;;;10485630;28;20224;-74
2023/01/04 21:36:49;;;;;;;1.00;0.80;;;10.10;99.90;;;;;;10473469;28;20242;-64
2023/01/04 21:41:52;;;;;;;0.93;0.87;;;10.10;99.90;;;;;;10486120;28;20279;-73
2023/01/04 21:46:54;;;;;;;1.63;0.83;;;10.20;99.90;;;;;;10487513;28;20706;-71
2023/01/04 21:51:54;;;;;;;2.60;0.80;;;10.20;99.90;;;;;;10471187;28;20697;-72
2023/01/04 21:56:56;;;;;;;1.07;1.03;;;10.30;99.90;;;;;;10474243;28;20250;-71
2023/01/04 22:01:56;;;;;;;1.40;1.20;;;10.30;99.90;;;;;;10466864;28;20231;-68
2023/01/04 22:06:57;;;;;;;2.43;1.17;;;10.40;99.90;;;;;;10455242;28;20222;-68
2023/01/04 22:11:58;;;;;;;2.73;1.60;;;10.60;99.90;;;;;;10466543;28;20816;-69
2023/01/04 22:16:59;;;;;;;1.70;1.60;;;10.60;99.90;;;;;;10473197;28;20346;-66
2023/01/04 22:22:00;;;;;;;1.37;1.27;;;10.60;99.90;;;;;;10465559;28;20260;-68
2023/01/04 22:27:00;;;;;;;1.40;1.30;;;10.60;99.90;;;;;;10473512;28;20309;-68
2023/01/04 22:32:01;;;;;;;2.63;1.70;;;10.70;99.90;;;;;;10454529;28;20211;-67
2023/01/04 22:37:01;;;;;;;1.77;1.50;;;10.70;99.90;;;;;;10488081;28;20287;-68
2023/01/04 22:42:02;;;;;;;2.10;1.53;;;10.70;99.90;;;;;;10472291;28;20226;-65
2023/01/04 22:47:03;;;;;;;3.93;1.67;;;10.60;99.90;;;;;;10464522;28;20223;-67
2023/01/04 22:52:03;;;;;;;1.60;1.43;;;10.60;99.90;;;;;;10471498;28;20222;-67
2023/01/04 22:57:04;;;;;;;3.23;1.70;;;10.50;99.90;;;;;;10464773;28;20319;-67
2023/01/04 23:02:05;;;;;;;1.90;1.60;;;10.40;99.90;;;;;;10474092;28;20724;-68
2023/01/04 23:07:06;;;;;;;2.90;1.60;;;10.40;99.90;;;;;;10480204;28;20755;-67
2023/01/04 23:12:06;;;;;;;5.30;1.90;;;10.40;99.90;;;;;;10471427;28;20220;-68
2023/01/04 23:17:07;;;;;;;1.40;1.30;;;10.40;99.90;;;;;;10470711;28;20223;-68
2023/01/04 23:22:08;;;;;;;1.97;1.67;;;10.40;99.90;;;;;;10479023;28;20220;-68
2023/01/04 23:27:08;;;;;;;3.77;1.87;;;10.40;99.90;;;;;;10469901;28;20230;-67
2023/01/04 23:32:12;;;;;;;2.03;1.60;;;10.40;99.90;;;;;;10462839;28;20246;-69
2023/01/04 23:37:12;;;;;;;2.33;1.57;;;10.30;99.90;;;;;;10452971;28;20234;-68
2023/01/04 23:42:13;;;;;;;1.47;1.37;;;10.30;99.90;;;;;;10469155;28;20236;-67
2023/01/04 23:47:13;;;;;;;1.97;1.80;;;10.30;99.90;;;;;;10487554;28;20587;-66
2023/01/04 23:52:14;;;;;;;4.33;1.90;;;10.30;99.90;;;;;;10451778;28;20705;-68
2023/01/04 23:57:17;;;;;;;2.07;1.47;;;10.30;99.90;;;;;;10476286;28;20236;-66
